sensor_id;sensor_type;location;lat;lon;timestamp;P1;durP1;ratioP1;P2;durP2;ratioP2
70588;SDS011;58152;49.202;18.744;2023-12-20T00:01:48;34.42;;;24.70;;
70588;SDS011;58152;49.202;18.744;2023-12-20T00:04:14;34.17;;;23.17;;
70588;SDS011;58152;49.202;18.744;2023-12-20T00:06:39;37.50;;;24.90;;
70588;SDS011;58152;49.202;18.744;2023-12-20T00:09:05;34.75;;;23.65;;
70588;SDS011;58152;49.202;18.744;2023-12-20T00:11:30;35.72;;;23.88;;
70588;SDS011;58152;49.202;18.744;2023-12-20T00:13:55;34.20;;;22.48;;
70588;SDS011;58152;49.202;18.744;2023-12-20T00:16:21;58.55;;;40.30;;
70588;SDS011;58152;49.202;18.744;2023-12-20T00:18:46;106.00;;;69.57;;
70588;SDS011;58152;49.202;18.744;2023-12-20T00:21:12;162.10;;;109.93;;
70588;SDS011;58152;49.202;18.744;2023-12-20T00:23:37;119.35;;;76.30;;
70588;SDS011;58152;49.202;18.744;2023-12-20T00:26:02;72.85;;;46.55;;
70588;SDS011;58152;49.202;18.744;2023-12-20T00:28:28;47.38;;;30.85;;
70588;SDS011;58152;49.202;18.744;2023-12-20T00:30:53;47.75;;;31.80;;
70588;SDS011;58152;49.202;18.744;2023-12-20T00:33:19;37.25;;;24.33;;
70588;SDS011;58152;49.202;18.744;2023-12-20T00:35:44;35.60;;;24.52;;
70588;SDS011;58152;49.202;18.744;2023-12-20T00:38:10;34.80;;;24.88;;
70588;SDS011;58152;49.202;18.744;2023-12-20T00:40:36;36.95;;;24.13;;
70588;SDS011;58152;49.202;18.744;2023-12-20T00:43:02;34.88;;;22.58;;
70588;SDS011;58152;49.202;18.744;2023-12-20T00:45:27;35.47;;;22.85;;
70588;SDS011;58152;49.202;18.744;2023-12-20T00:47:53;36.13;;;23.95;;
70588;SDS011;58152;49.202;18.744;2023-12-20T00:50:18;31.23;;;20.52;;
70588;SDS011;58152;49.202;18.744;2023-12-20T00:52:44;35.30;;;22.55;;
70588;SDS011;58152;49.202;18.744;2023-12-20T00:55:09;32.30;;;20.92;;
70588;SDS011;58152;49.202;18.744;2023-12-20T00:57:35;38.25;;;26.77;;
70588;SDS011;58152;49.202;18.744;2023-12-20T01:00:00;94.30;;;60.42;;
70588;SDS011;58152;49.202;18.744;2023-12-20T01:02:26;118.72;;;80.00;;
70588;SDS011;58152;49.202;18.744;2023-12-20T01:04:51;97.60;;;61.38;;
70588;SDS011;58152;49.202;18.744;2023-12-20T01:07:16;69.72;;;45.20;;
70588;SDS011;58152;49.202;18.744;2023-12-20T01:09:42;48.97;;;30.95;;
70588;SDS011;58152;49.202;18.744;2023-12-20T01:12:07;43.65;;;26.17;;
70588;SDS011;58152;49.202;18.744;2023-12-20T01:14:33;36.97;;;24.00;;
70588;SDS011;58152;49.202;18.744;2023-12-20T01:16:59;39.40;;;23.63;;
70588;SDS011;58152;49.202;18.744;2023-12-20T01:19:24;39.25;;;23.58;;
70588;SDS011;58152;49.202;18.744;2023-12-20T01:21:50;35.25;;;23.25;;
70588;SDS011;58152;49.202;18.744;2023-12-20T01:24:15;33.88;;;21.83;;
70588;SDS011;58152;49.202;18.744;2023-12-20T01:26:41;50.20;;;32.25;;
70588;SDS011;58152;49.202;18.744;2023-12-20T01:29:07;82.82;;;49.42;;
70588;SDS011;58152;49.202;18.744;2023-12-20T01:31:32;63.97;;;39.75;;
70588;SDS011;58152;49.202;18.744;2023-12-20T01:33:58;64.53;;;39.47;;
70588;SDS011;58152;49.202;18.744;2023-12-20T01:36:23;45.80;;;29.42;;
70588;SDS011;58152;49.202;18.744;2023-12-20T01:38:48;38.00;;;24.98;;
70588;SDS011;58152;49.202;18.744;2023-12-20T01:41:14;42.15;;;24.33;;
70588;SDS011;58152;49.202;18.744;2023-12-20T01:43:39;37.97;;;22.73;;
70588;SDS011;58152;49.202;18.744;2023-12-20T01:46:05;37.63;;;23.35;;
70588;SDS011;58152;49.202;18.744;2023-12-20T01:48:30;37.00;;;23.15;;
70588;SDS011;58152;49.202;18.744;2023-12-20T01:50:59;37.40;;;22.65;;
70588;SDS011;58152;49.202;18.744;2023-12-20T01:53:25;32.50;;;19.60;;
70588;SDS011;58152;49.202;18.744;2023-12-20T01:55:52;36.95;;;23.58;;
70588;SDS011;58152;49.202;18.744;2023-12-20T01:58:20;34.05;;;21.90;;
70588;SDS011;58152;49.202;18.744;2023-12-20T02:00:47;34.53;;;22.52;;
70588;SDS011;58152;49.202;18.744;2023-12-20T02:03:13;67.18;;;41.40;;
70588;SDS011;58152;49.202;18.744;2023-12-20T02:05:39;49.03;;;31.33;;
70588;SDS011;58152;49.202;18.744;2023-12-20T02:08:05;66.07;;;38.38;;
70588;SDS011;58152;49.202;18.744;2023-12-20T02:10:31;53.50;;;33.28;;
70588;SDS011;58152;49.202;18.744;2023-12-20T02:12:57;42.53;;;26.70;;
70588;SDS011;58152;49.202;18.744;2023-12-20T02:15:23;40.80;;;25.65;;
70588;SDS011;58152;49.202;18.744;2023-12-20T02:17:48;39.58;;;25.33;;
70588;SDS011;58152;49.202;18.744;2023-12-20T02:20:14;34.72;;;21.95;;
70588;SDS011;58152;49.202;18.744;2023-12-20T02:22:40;36.75;;;22.38;;
70588;SDS011;58152;49.202;18.744;2023-12-20T02:25:05;38.40;;;22.85;;
70588;SDS011;58152;49.202;18.744;2023-12-20T02:27:31;37.92;;;23.15;;
70588;SDS011;58152;49.202;18.744;2023-12-20T02:29:56;33.50;;;21.48;;
70588;SDS011;58152;49.202;18.744;2023-12-20T02:32:22;32.67;;;20.92;;
70588;SDS011;58152;49.202;18.744;2023-12-20T02:34:51;35.22;;;20.70;;
70588;SDS011;58152;49.202;18.744;2023-12-20T02:37:16;40.83;;;23.95;;
70588;SDS011;58152;49.202;18.744;2023-12-20T02:39:42;37.00;;;21.90;;
70588;SDS011;58152;49.202;18.744;2023-12-20T02:42:07;36.17;;;22.23;;
70588;SDS011;58152;49.202;18.744;2023-12-20T02:44:33;32.95;;;21.88;;
70588;SDS011;58152;49.202;18.744;2023-12-20T02:46:59;36.20;;;23.15;;
70588;SDS011;58152;49.202;18.744;2023-12-20T02:49:24;36.50;;;22.40;;
70588;SDS011;58152;49.202;18.744;2023-12-20T02:51:49;36.72;;;21.77;;
70588;SDS011;58152;49.202;18.744;2023-12-20T02:54:15;35.17;;;22.35;;
70588;SDS011;58152;49.202;18.744;2023-12-20T02:56:41;37.63;;;21.98;;
70588;SDS011;58152;49.202;18.744;2023-12-20T02:59:06;37.78;;;23.20;;
70588;SDS011;58152;49.202;18.744;2023-12-20T03:01:33;39.75;;;22.83;;
70588;SDS011;58152;49.202;18.744;2023-12-20T03:03:59;41.47;;;24.13;;
70588;SDS011;58152;49.202;18.744;2023-12-20T03:06:25;39.33;;;22.55;;
70588;SDS011;58152;49.202;18.744;2023-12-20T03:08:51;39.28;;;23.30;;
70588;SDS011;58152;49.202;18.744;2023-12-20T03:11:16;37.58;;;21.88;;
70588;SDS011;58152;49.202;18.744;2023-12-20T03:13:42;37.80;;;22.27;;
70588;SDS011;58152;49.202;18.744;2023-12-20T03:16:11;38.13;;;23.02;;
70588;SDS011;58152;49.202;18.744;2023-12-20T03:18:37;35.03;;;20.52;;
70588;SDS011;58152;49.202;18.744;2023-12-20T03:21:03;37.60;;;21.67;;
70588;SDS011;58152;49.202;18.744;2023-12-20T03:23:29;34.58;;;20.08;;
70588;SDS011;58152;49.202;18.744;2023-12-20T03:25:55;37.22;;;21.73;;
70588;SDS011;58152;49.202;18.744;2023-12-20T03:28:21;35.65;;;22.17;;
70588;SDS011;58152;49.202;18.744;2023-12-20T03:30:48;35.70;;;21.45;;
70588;SDS011;58152;49.202;18.744;2023-12-20T03:33:13;34.10;;;20.25;;
70588;SDS011;58152;49.202;18.744;2023-12-20T03:35:38;34.53;;;20.35;;
70588;SDS011;58152;49.202;18.744;2023-12-20T03:38:04;31.67;;;19.17;;
70588;SDS011;58152;49.202;18.744;2023-12-20T03:40:29;38.28;;;20.42;;
70588;SDS011;58152;49.202;18.744;2023-12-20T03:42:55;34.17;;;20.80;;
70588;SDS011;58152;49.202;18.744;2023-12-20T03:45:20;31.40;;;19.70;;
70588;SDS011;58152;49.202;18.744;2023-12-20T03:47:45;34.15;;;19.60;;
70588;SDS011;58152;49.202;18.744;2023-12-20T03:50:11;30.90;;;18.35;;
70588;SDS011;58152;49.202;18.744;2023-12-20T03:52:36;32.90;;;18.70;;
70588;SDS011;58152;49.202;18.744;2023-12-20T03:55:02;32.03;;;18.73;;
70588;SDS011;58152;49.202;18.744;2023-12-20T03:57:28;34.88;;;20.23;;
70588;SDS011;58152;49.202;18.744;2023-12-20T03:59:53;36.78;;;21.35;;
70588;SDS011;58152;49.202;18.744;2023-12-20T04:02:18;37.30;;;21.55;;
70588;SDS011;58152;49.202;18.744;2023-12-20T04:04:44;37.38;;;21.55;;
70588;SDS011;58152;49.202;18.744;2023-12-20T04:07:09;37.58;;;21.73;;
70588;SDS011;58152;49.202;18.744;2023-12-20T04:09:35;39.10;;;22.73;;
70588;SDS011;58152;49.202;18.744;2023-12-20T04:12:00;44.05;;;24.45;;
70588;SDS011;58152;49.202;18.744;2023-12-20T04:14:26;38.20;;;22.73;;
70588;SDS011;58152;49.202;18.744;2023-12-20T04:16:52;38.00;;;20.83;;
70588;SDS011;58152;49.202;18.744;2023-12-20T04:19:17;39.47;;;22.15;;
70588;SDS011;58152;49.202;18.744;2023-12-20T04:21:42;42.28;;;22.80;;
70588;SDS011;58152;49.202;18.744;2023-12-20T04:24:08;39.67;;;22.02;;
70588;SDS011;58152;49.202;18.744;2023-12-20T04:26:33;39.33;;;22.13;;
70588;SDS011;58152;49.202;18.744;2023-12-20T04:28:59;37.33;;;21.30;;
70588;SDS011;58152;49.202;18.744;2023-12-20T04:31:24;48.08;;;23.55;;
70588;SDS011;58152;49.202;18.744;2023-12-20T04:33:49;43.20;;;23.40;;
70588;SDS011;58152;49.202;18.744;2023-12-20T04:36:15;41.92;;;22.30;;
70588;SDS011;58152;49.202;18.744;2023-12-20T04:38:40;44.53;;;22.27;;
70588;SDS011;58152;49.202;18.744;2023-12-20T04:41:06;47.25;;;23.48;;
70588;SDS011;58152;49.202;18.744;2023-12-20T04:43:31;44.35;;;24.63;;
70588;SDS011;58152;49.202;18.744;2023-12-20T04:45:57;42.55;;;24.30;;
70588;SDS011;58152;49.202;18.744;2023-12-20T04:48:22;39.20;;;22.13;;
70588;SDS011;58152;49.202;18.744;2023-12-20T04:50:48;40.45;;;21.92;;
70588;SDS011;58152;49.202;18.744;2023-12-20T04:53:13;41.38;;;22.75;;
70588;SDS011;58152;49.202;18.744;2023-12-20T04:55:38;41.53;;;23.70;;
70588;SDS011;58152;49.202;18.744;2023-12-20T04:58:04;45.38;;;24.17;;
70588;SDS011;58152;49.202;18.744;2023-12-20T05:00:29;37.85;;;22.35;;
70588;SDS011;58152;49.202;18.744;2023-12-20T05:02:55;38.60;;;22.27;;
70588;SDS011;58152;49.202;18.744;2023-12-20T05:05:20;45.85;;;23.45;;
70588;SDS011;58152;49.202;18.744;2023-12-20T05:07:46;39.70;;;21.85;;
70588;SDS011;58152;49.202;18.744;2023-12-20T05:10:11;38.97;;;20.95;;
70588;SDS011;58152;49.202;18.744;2023-12-20T05:12:37;38.40;;;22.98;;
70588;SDS011;58152;49.202;18.744;2023-12-20T05:15:02;37.70;;;21.80;;
70588;SDS011;58152;49.202;18.744;2023-12-20T05:17:29;41.72;;;22.35;;
70588;SDS011;58152;49.202;18.744;2023-12-20T05:19:54;37.80;;;21.63;;
70588;SDS011;58152;49.202;18.744;2023-12-20T05:22:20;43.30;;;23.25;;
70588;SDS011;58152;49.202;18.744;2023-12-20T05:24:45;44.10;;;23.95;;
70588;SDS011;58152;49.202;18.744;2023-12-20T05:27:10;39.25;;;21.38;;
70588;SDS011;58152;49.202;18.744;2023-12-20T05:29:36;42.13;;;22.15;;
70588;SDS011;58152;49.202;18.744;2023-12-20T05:32:02;38.08;;;19.83;;
70588;SDS011;58152;49.202;18.744;2023-12-20T05:34:29;40.88;;;21.95;;
70588;SDS011;58152;49.202;18.744;2023-12-20T05:36:55;44.45;;;23.35;;
70588;SDS011;58152;49.202;18.744;2023-12-20T05:39:21;41.20;;;21.10;;
70588;SDS011;58152;49.202;18.744;2023-12-20T05:41:46;47.75;;;24.08;;
70588;SDS011;58152;49.202;18.744;2023-12-20T05:44:12;41.63;;;21.98;;
70588;SDS011;58152;49.202;18.744;2023-12-20T05:46:38;44.25;;;22.50;;
70588;SDS011;58152;49.202;18.744;2023-12-20T05:49:04;47.55;;;25.25;;
70588;SDS011;58152;49.202;18.744;2023-12-20T05:51:30;44.63;;;22.05;;
70588;SDS011;58152;49.202;18.744;2023-12-20T05:53:55;49.63;;;23.00;;
70588;SDS011;58152;49.202;18.744;2023-12-20T05:56:20;47.95;;;24.83;;
70588;SDS011;58152;49.202;18.744;2023-12-20T05:58:47;45.22;;;23.95;;
70588;SDS011;58152;49.202;18.744;2023-12-20T06:01:14;44.60;;;24.08;;
70588;SDS011;58152;49.202;18.744;2023-12-20T06:03:41;39.70;;;22.25;;
70588;SDS011;58152;49.202;18.744;2023-12-20T06:06:07;44.30;;;21.35;;
70588;SDS011;58152;49.202;18.744;2023-12-20T06:08:36;46.15;;;24.75;;
70588;SDS011;58152;49.202;18.744;2023-12-20T06:11:01;39.25;;;22.17;;
70588;SDS011;58152;49.202;18.744;2023-12-20T06:13:27;44.22;;;23.27;;
70588;SDS011;58152;49.202;18.744;2023-12-20T06:15:54;40.65;;;21.35;;
70588;SDS011;58152;49.202;18.744;2023-12-20T06:18:20;36.92;;;20.92;;
70588;SDS011;58152;49.202;18.744;2023-12-20T06:20:45;38.95;;;21.50;;
70588;SDS011;58152;49.202;18.744;2023-12-20T06:23:11;45.45;;;25.40;;
70588;SDS011;58152;49.202;18.744;2023-12-20T06:25:36;45.17;;;23.98;;
70588;SDS011;58152;49.202;18.744;2023-12-20T06:28:02;40.00;;;21.58;;
70588;SDS011;58152;49.202;18.744;2023-12-20T06:30:28;42.42;;;23.67;;
70588;SDS011;58152;49.202;18.744;2023-12-20T06:32:54;47.22;;;25.35;;
70588;SDS011;58152;49.202;18.744;2023-12-20T06:35:22;43.03;;;21.23;;
70588;SDS011;58152;49.202;18.744;2023-12-20T06:37:48;40.75;;;22.13;;
70588;SDS011;58152;49.202;18.744;2023-12-20T06:40:13;45.35;;;24.85;;
70588;SDS011;58152;49.202;18.744;2023-12-20T06:42:38;45.90;;;24.33;;
70588;SDS011;58152;49.202;18.744;2023-12-20T06:45:04;47.85;;;24.25;;
70588;SDS011;58152;49.202;18.744;2023-12-20T06:47:30;46.92;;;24.52;;
70588;SDS011;58152;49.202;18.744;2023-12-20T06:49:55;45.88;;;26.08;;
70588;SDS011;58152;49.202;18.744;2023-12-20T06:52:39;50.33;;;25.17;;
70588;SDS011;58152;49.202;18.744;2023-12-20T06:55:04;47.75;;;25.27;;
70588;SDS011;58152;49.202;18.744;2023-12-20T06:57:30;49.58;;;27.85;;
70588;SDS011;58152;49.202;18.744;2023-12-20T06:59:55;46.63;;;24.60;;
70588;SDS011;58152;49.202;18.744;2023-12-20T07:02:21;47.15;;;24.55;;
70588;SDS011;58152;49.202;18.744;2023-12-20T07:04:47;54.00;;;28.38;;
70588;SDS011;58152;49.202;18.744;2023-12-20T07:07:13;56.13;;;27.35;;
70588;SDS011;58152;49.202;18.744;2023-12-20T07:09:38;57.42;;;28.50;;
70588;SDS011;58152;49.202;18.744;2023-12-20T07:12:06;57.00;;;28.88;;
70588;SDS011;58152;49.202;18.744;2023-12-20T07:14:31;54.50;;;26.48;;
70588;SDS011;58152;49.202;18.744;2023-12-20T07:16:57;58.90;;;29.38;;
70588;SDS011;58152;49.202;18.744;2023-12-20T07:19:22;60.22;;;27.38;;
70588;SDS011;58152;49.202;18.744;2023-12-20T07:21:47;53.50;;;27.35;;
70588;SDS011;58152;49.202;18.744;2023-12-20T07:24:13;54.78;;;28.42;;
70588;SDS011;58152;49.202;18.744;2023-12-20T07:26:38;58.88;;;28.15;;
70588;SDS011;58152;49.202;18.744;2023-12-20T07:29:07;55.75;;;27.55;;
70588;SDS011;58152;49.202;18.744;2023-12-20T07:31:32;48.22;;;24.15;;
70588;SDS011;58152;49.202;18.744;2023-12-20T07:33:57;48.63;;;26.13;;
70588;SDS011;58152;49.202;18.744;2023-12-20T07:36:23;53.15;;;26.02;;
70588;SDS011;58152;49.202;18.744;2023-12-20T07:38:48;52.58;;;29.58;;
70588;SDS011;58152;49.202;18.744;2023-12-20T07:41:14;51.63;;;26.10;;
70588;SDS011;58152;49.202;18.744;2023-12-20T07:43:41;45.92;;;24.70;;
70588;SDS011;58152;49.202;18.744;2023-12-20T07:46:06;49.88;;;25.38;;
70588;SDS011;58152;49.202;18.744;2023-12-20T07:48:36;46.35;;;24.83;;
70588;SDS011;58152;49.202;18.744;2023-12-20T07:51:02;46.63;;;25.20;;
70588;SDS011;58152;49.202;18.744;2023-12-20T07:53:28;53.60;;;28.45;;
70588;SDS011;58152;49.202;18.744;2023-12-20T07:55:54;44.30;;;24.17;;
70588;SDS011;58152;49.202;18.744;2023-12-20T07:58:20;45.25;;;23.02;;
70588;SDS011;58152;49.202;18.744;2023-12-20T08:00:45;49.38;;;26.45;;
70588;SDS011;58152;49.202;18.744;2023-12-20T08:03:11;50.28;;;27.92;;
70588;SDS011;58152;49.202;18.744;2023-12-20T08:05:36;46.03;;;26.02;;
70588;SDS011;58152;49.202;18.744;2023-12-20T08:08:05;50.55;;;26.25;;
70588;SDS011;58152;49.202;18.744;2023-12-20T08:10:31;48.13;;;25.73;;
70588;SDS011;58152;49.202;18.744;2023-12-20T08:12:56;46.72;;;25.30;;
70588;SDS011;58152;49.202;18.744;2023-12-20T08:15:22;48.65;;;27.83;;
70588;SDS011;58152;49.202;18.744;2023-12-20T08:17:48;46.58;;;27.42;;
70588;SDS011;58152;49.202;18.744;2023-12-20T08:20:15;38.88;;;24.13;;
70588;SDS011;58152;49.202;18.744;2023-12-20T08:22:41;45.35;;;25.92;;
70588;SDS011;58152;49.202;18.744;2023-12-20T08:25:07;42.08;;;24.05;;
70588;SDS011;58152;49.202;18.744;2023-12-20T08:27:42;36.75;;;21.60;;
70588;SDS011;58152;49.202;18.744;2023-12-20T08:30:10;37.00;;;21.70;;
70588;SDS011;58152;49.202;18.744;2023-12-20T08:32:36;41.80;;;24.80;;
70588;SDS011;58152;49.202;18.744;2023-12-20T08:35:01;41.35;;;23.63;;
70588;SDS011;58152;49.202;18.744;2023-12-20T08:37:27;44.28;;;25.13;;
70588;SDS011;58152;49.202;18.744;2023-12-20T08:39:53;41.35;;;23.48;;
70588;SDS011;58152;49.202;18.744;2023-12-20T08:42:18;42.40;;;24.40;;
70588;SDS011;58152;49.202;18.744;2023-12-20T08:44:44;41.30;;;24.55;;
70588;SDS011;58152;49.202;18.744;2023-12-20T08:47:10;41.70;;;24.50;;
70588;SDS011;58152;49.202;18.744;2023-12-20T08:49:38;39.72;;;22.95;;
70588;SDS011;58152;49.202;18.744;2023-12-20T08:52:04;40.65;;;24.08;;
70588;SDS011;58152;49.202;18.744;2023-12-20T08:54:30;40.15;;;23.45;;
70588;SDS011;58152;49.202;18.744;2023-12-20T08:56:55;43.95;;;26.80;;
70588;SDS011;58152;49.202;18.744;2023-12-20T08:59:21;40.03;;;24.83;;
70588;SDS011;58152;49.202;18.744;2023-12-20T09:01:46;39.10;;;24.33;;
70588;SDS011;58152;49.202;18.744;2023-12-20T09:04:13;41.75;;;23.30;;
70588;SDS011;58152;49.202;18.744;2023-12-20T09:06:38;39.42;;;24.90;;
70588;SDS011;58152;49.202;18.744;2023-12-20T09:09:04;42.33;;;25.58;;
70588;SDS011;58152;49.202;18.744;2023-12-20T09:11:29;37.67;;;22.02;;
70588;SDS011;58152;49.202;18.744;2023-12-20T09:13:55;40.25;;;25.05;;
70588;SDS011;58152;49.202;18.744;2023-12-20T09:16:20;40.08;;;24.60;;
70588;SDS011;58152;49.202;18.744;2023-12-20T09:18:46;39.47;;;25.77;;
70588;SDS011;58152;49.202;18.744;2023-12-20T09:21:11;42.58;;;24.40;;
70588;SDS011;58152;49.202;18.744;2023-12-20T09:23:37;43.70;;;27.27;;
70588;SDS011;58152;49.202;18.744;2023-12-20T09:26:03;42.65;;;25.90;;
70588;SDS011;58152;49.202;18.744;2023-12-20T09:28:29;53.15;;;31.52;;
70588;SDS011;58152;49.202;18.744;2023-12-20T09:30:54;48.75;;;28.15;;
70588;SDS011;58152;49.202;18.744;2023-12-20T09:33:22;46.00;;;27.52;;
70588;SDS011;58152;49.202;18.744;2023-12-20T09:35:49;46.20;;;27.15;;
70588;SDS011;58152;49.202;18.744;2023-12-20T09:38:15;41.50;;;25.95;;
70588;SDS011;58152;49.202;18.744;2023-12-20T09:40:42;39.72;;;22.65;;
70588;SDS011;58152;49.202;18.744;2023-12-20T09:43:09;37.35;;;23.20;;
70588;SDS011;58152;49.202;18.744;2023-12-20T09:45:39;38.95;;;23.70;;
70588;SDS011;58152;49.202;18.744;2023-12-20T09:48:05;43.78;;;26.08;;
70588;SDS011;58152;49.202;18.744;2023-12-20T09:50:32;51.00;;;28.67;;
70588;SDS011;58152;49.202;18.744;2023-12-20T09:52:58;52.60;;;29.10;;
70588;SDS011;58152;49.202;18.744;2023-12-20T09:55:27;55.45;;;30.98;;
70588;SDS011;58152;49.202;18.744;2023-12-20T09:57:54;47.85;;;28.30;;
70588;SDS011;58152;49.202;18.744;2023-12-20T10:00:20;47.53;;;28.42;;
70588;SDS011;58152;49.202;18.744;2023-12-20T10:02:49;51.90;;;28.42;;
70588;SDS011;58152;49.202;18.744;2023-12-20T10:05:20;44.83;;;26.23;;
70588;SDS011;58152;49.202;18.744;2023-12-20T10:07:52;42.22;;;25.13;;
70588;SDS011;58152;49.202;18.744;2023-12-20T10:10:17;46.95;;;26.95;;
70588;SDS011;58152;49.202;18.744;2023-12-20T10:13:00;49.15;;;29.23;;
70588;SDS011;58152;49.202;18.744;2023-12-20T10:15:33;41.80;;;26.88;;
70588;SDS011;58152;49.202;18.744;2023-12-20T10:18:00;47.33;;;28.25;;
70588;SDS011;58152;49.202;18.744;2023-12-20T10:20:26;45.58;;;28.25;;
70588;SDS011;58152;49.202;18.744;2023-12-20T10:22:54;44.42;;;26.75;;
70588;SDS011;58152;49.202;18.744;2023-12-20T10:25:20;41.83;;;25.63;;
70588;SDS011;58152;49.202;18.744;2023-12-20T10:27:46;46.10;;;28.08;;
70588;SDS011;58152;49.202;18.744;2023-12-20T10:30:12;42.13;;;26.23;;
70588;SDS011;58152;49.202;18.744;2023-12-20T10:32:39;41.97;;;25.35;;
70588;SDS011;58152;49.202;18.744;2023-12-20T10:35:05;134.95;;;97.05;;
70588;SDS011;58152;49.202;18.744;2023-12-20T10:37:34;133.70;;;93.82;;
70588;SDS011;58152;49.202;18.744;2023-12-20T10:40:01;167.77;;;117.53;;
70588;SDS011;58152;49.202;18.744;2023-12-20T10:42:29;123.97;;;83.65;;
70588;SDS011;58152;49.202;18.744;2023-12-20T10:44:55;87.93;;;57.25;;
70588;SDS011;58152;49.202;18.744;2023-12-20T10:47:21;67.70;;;41.45;;
70588;SDS011;58152;49.202;18.744;2023-12-20T10:49:49;50.08;;;30.73;;
70588;SDS011;58152;49.202;18.744;2023-12-20T10:52:17;41.92;;;26.58;;
70588;SDS011;58152;49.202;18.744;2023-12-20T10:54:43;36.70;;;24.73;;
70588;SDS011;58152;49.202;18.744;2023-12-20T10:57:09;38.22;;;24.80;;
70588;SDS011;58152;49.202;18.744;2023-12-20T10:59:37;36.28;;;24.92;;
70588;SDS011;58152;49.202;18.744;2023-12-20T11:02:03;37.05;;;24.55;;
70588;SDS011;58152;49.202;18.744;2023-12-20T11:07:35;31.85;;;20.83;;
70588;SDS011;58152;49.202;18.744;2023-12-20T11:15:36;30.27;;;20.20;;
70588;SDS011;58152;49.202;18.744;2023-12-20T11:18:01;34.33;;;23.27;;
70588;SDS011;58152;49.202;18.744;2023-12-20T11:20:36;33.13;;;21.20;;
70588;SDS011;58152;49.202;18.744;2023-12-20T11:23:02;32.50;;;22.45;;
70588;SDS011;58152;49.202;18.744;2023-12-20T11:25:28;31.10;;;21.42;;
70588;SDS011;58152;49.202;18.744;2023-12-20T11:28:09;29.20;;;20.83;;
70588;SDS011;58152;49.202;18.744;2023-12-20T11:30:42;33.53;;;21.83;;
70588;SDS011;58152;49.202;18.744;2023-12-20T11:33:11;30.27;;;20.37;;
70588;SDS011;58152;49.202;18.744;2023-12-20T11:35:37;34.10;;;21.42;;
70588;SDS011;58152;49.202;18.744;2023-12-20T11:38:07;30.02;;;21.75;;
70588;SDS011;58152;49.202;18.744;2023-12-20T11:40:33;30.85;;;20.88;;
70588;SDS011;58152;49.202;18.744;2023-12-20T11:42:59;28.45;;;20.80;;
70588;SDS011;58152;49.202;18.744;2023-12-20T11:45:25;29.02;;;19.50;;
70588;SDS011;58152;49.202;18.744;2023-12-20T11:47:52;29.35;;;20.25;;
70588;SDS011;58152;49.202;18.744;2023-12-20T11:50:20;27.45;;;18.67;;
70588;SDS011;58152;49.202;18.744;2023-12-20T11:52:47;27.23;;;18.88;;
70588;SDS011;58152;49.202;18.744;2023-12-20T11:55:13;30.83;;;20.73;;
70588;SDS011;58152;49.202;18.744;2023-12-20T11:57:39;31.35;;;20.83;;
70588;SDS011;58152;49.202;18.744;2023-12-20T12:00:04;29.90;;;19.08;;
70588;SDS011;58152;49.202;18.744;2023-12-20T12:02:31;23.90;;;17.73;;
70588;SDS011;58152;49.202;18.744;2023-12-20T12:04:57;23.02;;;16.70;;
70588;SDS011;58152;49.202;18.744;2023-12-20T12:07:24;20.08;;;14.38;;
70588;SDS011;58152;49.202;18.744;2023-12-20T12:09:50;18.15;;;13.32;;
70588;SDS011;58152;49.202;18.744;2023-12-20T12:12:16;18.60;;;13.13;;
70588;SDS011;58152;49.202;18.744;2023-12-20T12:14:45;15.73;;;11.70;;
70588;SDS011;58152;49.202;18.744;2023-12-20T12:17:11;14.70;;;12.05;;
70588;SDS011;58152;49.202;18.744;2023-12-20T12:19:37;15.63;;;11.40;;
70588;SDS011;58152;49.202;18.744;2023-12-20T12:22:04;13.82;;;10.73;;
70588;SDS011;58152;49.202;18.744;2023-12-20T12:24:36;12.45;;;10.40;;
70588;SDS011;58152;49.202;18.744;2023-12-20T12:27:05;11.70;;;9.63;;
70588;SDS011;58152;49.202;18.744;2023-12-20T12:29:32;12.38;;;9.48;;
70588;SDS011;58152;49.202;18.744;2023-12-20T12:31:57;11.10;;;8.85;;
70588;SDS011;58152;49.202;18.744;2023-12-20T12:34:23;14.77;;;10.27;;
70588;SDS011;58152;49.202;18.744;2023-12-20T12:36:48;14.38;;;10.15;;
70588;SDS011;58152;49.202;18.744;2023-12-20T12:39:14;12.27;;;8.93;;
70588;SDS011;58152;49.202;18.744;2023-12-20T12:41:43;9.57;;;7.60;;
70588;SDS011;58152;49.202;18.744;2023-12-20T12:44:08;9.82;;;7.70;;
70588;SDS011;58152;49.202;18.744;2023-12-20T12:46:34;9.88;;;7.30;;
70588;SDS011;58152;49.202;18.744;2023-12-20T12:48:59;9.75;;;7.38;;
70588;SDS011;58152;49.202;18.744;2023-12-20T12:51:25;6.60;;;5.93;;
70588;SDS011;58152;49.202;18.744;2023-12-20T12:53:50;6.75;;;6.05;;
70588;SDS011;58152;49.202;18.744;2023-12-20T12:56:16;6.18;;;5.57;;
70588;SDS011;58152;49.202;18.744;2023-12-20T12:58:42;8.30;;;6.47;;
70588;SDS011;58152;49.202;18.744;2023-12-20T13:01:07;7.65;;;6.85;;
70588;SDS011;58152;49.202;18.744;2023-12-20T13:03:33;13.32;;;10.00;;
70588;SDS011;58152;49.202;18.744;2023-12-20T13:05:59;13.45;;;10.40;;
70588;SDS011;58152;49.202;18.744;2023-12-20T13:08:24;14.93;;;10.95;;
70588;SDS011;58152;49.202;18.744;2023-12-20T13:10:50;14.30;;;10.63;;
70588;SDS011;58152;49.202;18.744;2023-12-20T13:13:16;19.75;;;14.68;;
70588;SDS011;58152;49.202;18.744;2023-12-20T13:15:41;20.10;;;14.32;;
70588;SDS011;58152;49.202;18.744;2023-12-20T13:18:07;22.98;;;15.45;;
70588;SDS011;58152;49.202;18.744;2023-12-20T13:20:32;23.38;;;17.27;;
70588;SDS011;58152;49.202;18.744;2023-12-20T13:22:58;26.45;;;17.10;;
70588;SDS011;58152;49.202;18.744;2023-12-20T13:25:24;20.38;;;16.08;;
70588;SDS011;58152;49.202;18.744;2023-12-20T13:27:50;21.38;;;17.17;;
70588;SDS011;58152;49.202;18.744;2023-12-20T13:30:16;19.98;;;16.20;;
70588;SDS011;58152;49.202;18.744;2023-12-20T13:32:42;24.30;;;17.42;;
70588;SDS011;58152;49.202;18.744;2023-12-20T13:35:07;24.02;;;17.60;;
70588;SDS011;58152;49.202;18.744;2023-12-20T13:37:33;20.42;;;16.58;;
70588;SDS011;58152;49.202;18.744;2023-12-20T13:39:59;21.27;;;15.75;;
70588;SDS011;58152;49.202;18.744;2023-12-20T13:42:25;20.13;;;15.80;;
70588;SDS011;58152;49.202;18.744;2023-12-20T13:44:52;18.55;;;15.18;;
70588;SDS011;58152;49.202;18.744;2023-12-20T13:47:18;20.13;;;15.38;;
70588;SDS011;58152;49.202;18.744;2023-12-20T13:49:44;21.08;;;15.43;;
70588;SDS011;58152;49.202;18.744;2023-12-20T13:52:10;20.77;;;15.48;;
70588;SDS011;58152;49.202;18.744;2023-12-20T13:54:36;20.85;;;16.50;;
70588;SDS011;58152;49.202;18.744;2023-12-20T13:57:02;23.73;;;17.92;;
70588;SDS011;58152;49.202;18.744;2023-12-20T13:59:28;26.30;;;19.50;;
70588;SDS011;58152;49.202;18.744;2023-12-20T14:01:53;28.00;;;20.40;;
70588;SDS011;58152;49.202;18.744;2023-12-20T14:04:19;30.88;;;19.80;;
70588;SDS011;58152;49.202;18.744;2023-12-20T14:06:46;28.55;;;19.83;;
70588;SDS011;58152;49.202;18.744;2023-12-20T14:09:12;27.50;;;19.75;;
70588;SDS011;58152;49.202;18.744;2023-12-20T14:11:37;27.80;;;20.92;;